Time;durP1;ratioP1;P1;durP2;ratioP2;P2;SDS_P1;SDS_P2;PMS_P1;PMS_P2;Temp;Humidity;BMP_temperature;BMP_pressure;BME280_temperature;BME280_humidity;BME280_pressure;Samples;Min_cycle;Max_cycle;Signal;HPM_P1;HPM_P2
2022/09/21 00:00:50;;;;;;;6.73;5.60;;;6.40;99.90;;;;;;5039605;28;20545;-47
2022/09/21 00:03:16;;;;;;;6.00;5.23;;;6.40;99.90;;;;;;5041397;28;20615;-47
2022/09/21 00:05:45;;;;;;;6.53;5.90;;;6.40;99.90;;;;;;5043569;28;20987;-47
2022/09/21 00:08:12;;;;;;;6.00;5.40;;;6.40;99.90;;;;;;5044887;28;20527;-48
2022/09/21 00:10:39;;;;;;;5.30;4.90;;;6.30;99.90;;;;;;5035998;28;20542;-50
2022/09/21 00:13:07;;;;;;;6.63;5.50;;;6.40;99.90;;;;;;5045715;28;20583;-48
2022/09/21 00:15:33;;;;;;;6.53;5.40;;;6.30;99.90;;;;;;5044928;28;20478;-49
2022/09/21 00:18:00;;;;;;;5.73;5.23;;;6.30;99.90;;;;;;5045681;28;20561;-48
2022/09/21 00:20:28;;;;;;;5.67;5.03;;;6.30;99.90;;;;;;5045038;28;20465;-48
2022/09/21 00:22:56;;;;;;;7.83;5.10;;;6.30;99.90;;;;;;5044445;28;20546;-48
2022/09/21 00:25:22;;;;;;;5.23;4.83;;;6.30;99.90;;;;;;5044575;28;20564;-49
2022/09/21 00:27:50;;;;;;;6.10;5.57;;;6.20;99.90;;;;;;5049378;28;20529;-49
2022/09/21 00:30:17;;;;;;;7.23;5.33;;;6.30;99.90;;;;;;5053189;28;20473;-49
2022/09/21 00:32:44;;;;;;;5.70;5.10;;;6.20;99.90;;;;;;5043011;28;20548;-47
2022/09/21 00:35:10;;;;;;;8.57;5.23;;;6.20;99.90;;;;;;5045414;28;20561;-48
2022/09/21 00:37:37;;;;;;;6.60;5.03;;;6.20;99.90;;;;;;5047770;28;20561;-48
2022/09/21 00:40:06;;;;;;;6.23;5.40;;;6.20;99.90;;;;;;5050012;28;20541;-48
2022/09/21 00:42:34;;;;;;;7.23;4.83;;;6.30;99.90;;;;;;5045808;28;20504;-48
2022/09/21 00:45:02;;;;;;;6.23;5.13;;;6.20;99.90;;;;;;5048319;28;20565;-48
2022/09/21 00:47:34;;;;;;;4.57;4.17;;;6.20;99.90;;;;;;5048140;28;20516;-48
2022/09/21 00:50:05;;;;;;;4.67;4.20;;;6.20;99.90;;;;;;5047728;28;20556;-48
2022/09/21 00:52:35;;;;;;;6.43;5.13;;;6.20;99.90;;;;;;5051947;28;20446;-48
2022/09/21 00:55:09;;;;;;;5.77;5.17;;;6.10;99.90;;;;;;5047364;28;20557;-48
2022/09/21 00:57:37;;;;;;;6.40;4.93;;;6.10;99.90;;;;;;5047718;28;20573;-48
2022/09/21 01:00:08;;;;;;;5.10;4.60;;;6.00;99.90;;;;;;5051646;28;20544;-47
2022/09/21 01:02:35;;;;;;;8.60;4.87;;;6.00;99.90;;;;;;5048693;28;20458;-48
2022/09/21 01:05:05;;;;;;;9.30;4.80;;;6.00;99.90;;;;;;5047113;28;20539;-48
2022/09/21 01:07:36;;;;;;;4.83;4.37;;;6.00;99.90;;;;;;5078392;22;21139;-47
2022/09/21 01:10:08;;;;;;;4.73;4.10;;;6.00;99.90;;;;;;5069704;28;20544;-48
2022/09/21 01:12:50;;;;;;;5.13;4.60;;;5.90;99.90;;;;;;5065242;28;20456;-47
2022/09/21 01:15:25;;;;;;;4.03;3.57;;;6.00;99.90;;;;;;5068772;28;20532;-47
2022/09/21 01:18:01;;;;;;;4.03;3.70;;;5.90;99.90;;;;;;5043671;28;20548;-48
2022/09/21 01:21:06;;;;;;;4.57;3.63;;;5.90;99.90;;;;;;5046901;28;20544;-47
2022/09/21 01:24:01;;;;;;;5.27;3.90;;;5.80;99.90;;;;;;5033337;28;20544;-48
2022/09/21 01:26:44;;;;;;;4.13;3.63;;;5.80;99.90;;;;;;5043108;28;20496;-48
2022/09/21 01:29:19;;;;;;;4.30;3.90;;;5.80;99.90;;;;;;5047792;28;20488;-47
2022/09/21 01:31:51;;;;;;;6.53;3.93;;;5.90;99.90;;;;;;5049996;28;20540;-48
2022/09/21 01:34:24;;;;;;;3.57;3.27;;;5.90;99.90;;;;;;5052273;28;21543;-46
2022/09/21 01:36:54;;;;;;;4.60;3.83;;;5.90;99.90;;;;;;5048462;28;20535;-48
2022/09/21 01:39:23;;;;;;;5.40;3.60;;;5.90;99.90;;;;;;5045507;28;20462;-47
2022/09/21 01:41:51;;;;;;;7.10;3.80;;;5.90;99.90;;;;;;5048489;28;21023;-47
2022/09/21 01:44:21;;;;;;;4.37;3.80;;;5.90;99.90;;;;;;5045504;28;20465;-47
2022/09/21 01:46:49;;;;;;;4.47;3.30;;;5.90;99.90;;;;;;5050058;28;20564;-47
2022/09/21 01:49:21;;;;;;;4.90;4.40;;;5.80;99.90;;;;;;5049519;28;20532;-47
2022/09/21 01:51:56;;;;;;;7.70;4.43;;;5.80;99.90;;;;;;5050190;28;20536;-48
2022/09/21 01:54:28;;;;;;;4.57;4.03;;;5.70;99.90;;;;;;5047467;28;20595;-47
2022/09/21 01:56:59;;;;;;;5.73;4.00;;;5.70;99.90;;;;;;5049517;28;20505;-47
2022/09/21 01:59:34;;;;;;;7.83;4.43;;;5.70;99.90;;;;;;5049828;28;20462;-47
2022/09/21 02:02:05;;;;;;;10.30;4.90;;;5.70;99.90;;;;;;5041976;28;20484;-47
2022/09/21 02:04:34;;;;;;;10.87;4.73;;;5.70;99.90;;;;;;5042931;28;20556;-47
2022/09/21 02:07:01;;;;;;;4.17;3.77;;;5.80;99.90;;;;;;5047795;28;20497;-47
2022/09/21 02:09:28;;;;;;;5.10;3.93;;;5.70;99.90;;;;;;5046529;28;20458;-47
2022/09/21 02:11:57;;;;;;;8.00;5.50;;;5.70;99.90;;;;;;5047310;28;20554;-46
2022/09/21 02:14:25;;;;;;;8.77;6.40;;;5.60;99.90;;;;;;5047246;28;20517;-48
2022/09/21 02:17:03;;;;;;;9.10;6.40;;;5.60;99.90;;;;;;5048448;28;20568;-46
2022/09/21 02:19:40;;;;;;;9.90;5.80;;;5.60;99.90;;;;;;5052183;28;20865;-47
2022/09/21 02:22:13;;;;;;;8.10;5.83;;;5.60;99.90;;;;;;5045909;28;20458;-47
2022/09/21 02:24:43;;;;;;;7.50;5.70;;;5.60;99.90;;;;;;5047264;28;20556;-47
2022/09/21 02:27:18;;;;;;;21.30;8.10;;;5.60;99.90;;;;;;5048972;28;20901;-48
2022/09/21 02:29:49;;;;;;;15.40;8.50;;;5.80;99.90;;;;;;5050607;28;21047;-48
2022/09/21 02:32:26;;;;;;;15.10;9.73;;;5.70;99.90;;;;;;5046652;28;20545;-48
2022/09/21 02:34:59;;;;;;;10.80;6.83;;;5.60;99.90;;;;;;5048537;28;20569;-47
2022/09/21 02:37:32;;;;;;;11.40;7.00;;;5.60;99.90;;;;;;5052028;28;20569;-48
2022/09/21 02:40:03;;;;;;;14.20;6.63;;;5.50;99.90;;;;;;5045181;28;20935;-48
2022/09/21 02:42:33;;;;;;;11.30;6.73;;;5.50;99.90;;;;;;5046740;28;20462;-47
2022/09/21 02:45:06;;;;;;;7.23;5.60;;;5.50;99.90;;;;;;5047966;28;20549;-46
2022/09/21 02:47:41;;;;;;;10.40;5.70;;;5.50;99.90;;;;;;5046610;28;20589;-47
2022/09/21 02:50:12;;;;;;;7.37;4.93;;;5.50;99.90;;;;;;5046644;28;20540;-47
2022/09/21 02:52:42;;;;;;;5.13;4.63;;;5.40;99.90;;;;;;5046336;28;20545;-48
2022/09/21 02:55:10;;;;;;;7.10;4.90;;;5.50;99.90;;;;;;5044736;28;20589;-47
2022/09/21 02:57:38;;;;;;;8.20;5.40;;;5.40;99.90;;;;;;5048510;28;20561;-47
2022/09/21 03:00:06;;;;;;;7.43;4.87;;;5.50;99.90;;;;;;5045845;28;20556;-47
2022/09/21 03:02:38;;;;;;;7.03;6.30;;;5.50;99.90;;;;;;5047773;28;20541;-48
2022/09/21 03:05:06;;;;;;;6.53;4.90;;;5.50;99.90;;;;;;5047283;28;20458;-48
2022/09/21 03:07:33;;;;;;;5.87;4.90;;;5.60;99.90;;;;;;5045156;28;20521;-47
2022/09/21 03:09:59;;;;;;;5.53;4.93;;;5.50;99.90;;;;;;5049381;28;20838;-48
2022/09/21 03:12:26;;;;;;;6.43;4.77;;;5.40;99.90;;;;;;5047777;28;20544;-48
2022/09/21 03:14:54;;;;;;;9.03;5.80;;;5.40;99.90;;;;;;5047015;28;20490;-47
2022/09/21 03:17:21;;;;;;;12.30;7.13;;;5.40;99.90;;;;;;5048612;28;20849;-47
2022/09/21 03:19:49;;;;;;;8.00;5.60;;;5.40;99.90;;;;;;5049861;28;20492;-47
2022/09/21 03:22:16;;;;;;;10.20;5.40;;;5.30;99.90;;;;;;5047702;28;21082;-47
2022/09/21 03:24:46;;;;;;;6.80;5.10;;;5.40;99.90;;;;;;5038634;28;20494;-47
2022/09/21 03:27:13;;;;;;;5.47;4.97;;;5.30;99.90;;;;;;5048441;28;20980;-46
2022/09/21 03:29:39;;;;;;;4.57;4.13;;;5.30;99.90;;;;;;5045248;28;21205;-47
2022/09/21 03:32:06;;;;;;;6.77;5.17;;;5.30;99.90;;;;;;5045000;28;20487;-48
2022/09/21 03:34:33;;;;;;;6.67;4.87;;;5.30;99.90;;;;;;5049089;28;21057;-46
2022/09/21 03:37:01;;;;;;;5.83;4.40;;;5.30;99.90;;;;;;5047250;28;20518;-47
2022/09/21 03:39:28;;;;;;;4.97;4.30;;;5.30;99.90;;;;;;5046633;28;20541;-47
2022/09/21 03:41:55;;;;;;;5.73;4.13;;;5.30;99.90;;;;;;5043245;28;20553;-47
2022/09/21 03:44:22;;;;;;;6.07;4.33;;;5.30;99.90;;;;;;5050232;28;20464;-48
2022/09/21 03:46:49;;;;;;;4.50;3.83;;;5.30;99.90;;;;;;5044000;28;20513;-48
2022/09/21 03:49:16;;;;;;;4.47;3.60;;;5.30;99.90;;;;;;5043549;28;20462;-47
2022/09/21 03:51:42;;;;;;;5.63;3.67;;;5.30;99.90;;;;;;5046346;28;20487;-47
2022/09/21 03:54:10;;;;;;;5.57;4.00;;;5.30;99.90;;;;;;5044874;28;20913;-47
2022/09/21 03:56:37;;;;;;;14.00;3.63;;;5.30;99.90;;;;;;5046324;28;20573;-46
2022/09/21 03:59:05;;;;;;;3.70;3.40;;;5.40;99.90;;;;;;5042482;28;20548;-48
2022/09/21 04:01:31;;;;;;;4.53;4.10;;;5.40;99.90;;;;;;5045207;28;20454;-47
2022/09/21 04:03:58;;;;;;;4.33;3.80;;;5.30;99.90;;;;;;5044413;28;21057;-47
2022/09/21 04:06:24;;;;;;;5.17;3.47;;;5.30;99.90;;;;;;5043189;28;20533;-47
2022/09/21 04:08:52;;;;;;;3.53;2.90;;;5.40;99.90;;;;;;5043907;28;20458;-49
2022/09/21 04:11:21;;;;;;;3.97;3.20;;;5.30;99.90;;;;;;5050703;28;20552;-47
2022/09/21 04:13:51;;;;;;;3.97;3.57;;;5.30;99.90;;;;;;5046615;28;20806;-47
2022/09/21 04:16:17;;;;;;;3.37;3.17;;;5.30;99.90;;;;;;5051467;28;20474;-48
2022/09/21 04:18:44;;;;;;;8.80;3.30;;;5.20;99.90;;;;;;5053835;28;20546;-48
2022/09/21 04:21:10;;;;;;;6.20;3.50;;;5.30;99.90;;;;;;5049727;28;20916;-48
2022/09/21 04:23:37;;;;;;;4.53;3.37;;;5.40;99.90;;;;;;5049643;28;20560;-47
2022/09/21 04:26:03;;;;;;;3.10;2.87;;;5.30;99.90;;;;;;5038609;28;20612;-49
2022/09/21 04:28:31;;;;;;;6.93;2.93;;;5.30;99.90;;;;;;5048401;28;20966;-47
2022/09/21 04:30:58;;;;;;;4.50;3.07;;;5.30;99.90;;;;;;5048399;28;20587;-47
2022/09/21 04:33:25;;;;;;;3.70;2.70;;;5.30;99.90;;;;;;5048804;28;20568;-46
2022/09/21 04:35:55;;;;;;;3.80;3.40;;;5.30;99.90;;;;;;5046813;28;20580;-47
2022/09/21 04:38:21;;;;;;;7.57;3.00;;;5.30;99.90;;;;;;5044848;28;20457;-47
2022/09/21 04:40:54;;;;;;;5.30;2.90;;;5.40;99.90;;;;;;5044421;28;20588;-48
2022/09/21 04:43:21;;;;;;;4.70;3.00;;;5.40;99.90;;;;;;5047566;28;20553;-48
2022/09/21 04:45:49;;;;;;;3.63;3.30;;;5.40;99.90;;;;;;5045479;28;20564;-48
2022/09/21 04:48:16;;;;;;;4.20;2.53;;;5.40;99.90;;;;;;5041223;28;20548;-48
2022/09/21 04:50:43;;;;;;;3.20;2.90;;;5.40;99.90;;;;;;5045871;28;20481;-46
2022/09/21 04:53:10;;;;;;;3.77;3.47;;;5.30;99.90;;;;;;5049405;28;20613;-47
2022/09/21 04:55:36;;;;;;;3.83;3.40;;;5.30;99.90;;;;;;5049620;28;20576;-47
2022/09/21 04:58:03;;;;;;;5.67;4.00;;;5.30;99.90;;;;;;5050024;28;20565;-46
2022/09/21 05:00:29;;;;;;;11.53;3.40;;;5.20;99.90;;;;;;5048664;28;20556;-47
2022/09/21 05:02:57;;;;;;;13.80;5.20;;;5.30;99.90;;;;;;5046720;28;20925;-47
2022/09/21 05:05:24;;;;;;;6.17;5.00;;;5.30;99.90;;;;;;5047491;28;20462;-47
2022/09/21 05:07:51;;;;;;;15.87;8.60;;;5.30;99.90;;;;;;5050398;28;20458;-47
2022/09/21 05:10:17;;;;;;;20.27;11.37;;;5.30;99.90;;;;;;5046873;28;20994;-47
2022/09/21 05:12:43;;;;;;;16.00;8.33;;;5.30;99.90;;;;;;5048434;28;20540;-47
2022/09/21 05:15:11;;;;;;;16.47;6.17;;;5.30;99.90;;;;;;5048602;28;20251;-48
2022/09/21 05:17:37;;;;;;;12.13;6.43;;;5.30;99.90;;;;;;5045882;28;20587;-47
2022/09/21 05:20:06;;;;;;;10.03;5.10;;;5.40;99.90;;;;;;5043679;28;20467;-48
2022/09/21 05:22:33;;;;;;;6.50;5.03;;;5.40;99.90;;;;;;5044841;28;20540;-47
2022/09/21 05:24:59;;;;;;;5.10;4.60;;;5.40;99.90;;;;;;5048388;28;20544;-47
2022/09/21 05:27:26;;;;;;;10.67;4.23;;;5.50;99.90;;;;;;5048245;28;20485;-46
2022/09/21 05:29:53;;;;;;;18.03;4.50;;;5.50;99.90;;;;;;5048510;28;20546;-47
2022/09/21 05:32:25;;;;;;;10.53;3.67;;;5.50;99.90;;;;;;5050425;28;20731;-47
2022/09/21 05:35:07;;;;;;;17.53;4.23;;;5.50;99.90;;;;;;5051322;28;20505;-47
2022/09/21 05:37:47;;;;;;;6.20;3.60;;;5.50;99.90;;;;;;5047902;28;20486;-48
2022/09/21 05:40:14;;;;;;;5.70;3.90;;;5.60;99.90;;;;;;5043704;28;20553;-47
2022/09/21 05:42:41;;;;;;;3.80;3.50;;;5.60;99.90;;;;;;5043079;28;21062;-47
2022/09/21 05:45:14;;;;;;;8.70;3.53;;;5.70;99.90;;;;;;5043909;28;20536;-48
2022/09/21 05:47:52;;;;;;;11.60;4.23;;;5.80;99.90;;;;;;5044181;28;20539;-47
2022/09/21 05:50:29;;;;;;;6.10;3.90;;;5.80;99.90;;;;;;5040134;28;20539;-47
2022/09/21 05:53:08;;;;;;;4.13;3.57;;;5.90;99.90;;;;;;5044092;28;20549;-46
2022/09/21 05:55:44;;;;;;;7.40;4.20;;;6.00;99.90;;;;;;5050206;28;21041;-47
2022/09/21 05:58:21;;;;;;;6.40;3.53;;;6.10;99.90;;;;;;5045073;28;20566;-46
2022/09/21 06:00:59;;;;;;;3.97;3.57;;;6.10;99.90;;;;;;5042526;28;20998;-46
2022/09/21 06:03:28;;;;;;;6.40;3.70;;;6.20;99.90;;;;;;5048592;28;20536;-47
2022/09/21 06:05:57;;;;;;;4.20;3.40;;;6.20;99.90;;;;;;5049991;28;20486;-47
2022/09/21 06:08:24;;;;;;;4.07;3.67;;;6.30;99.90;;;;;;5051829;28;20465;-47
2022/09/21 06:10:51;;;;;;;4.63;3.27;;;6.40;99.90;;;;;;5051424;28;20595;-47
2022/09/21 06:13:18;;;;;;;3.80;3.50;;;6.50;99.90;;;;;;5048806;28;20525;-47
2022/09/21 06:15:45;;;;;;;3.90;3.43;;;6.60;99.90;;;;;;5048461;28;20580;-47
2022/09/21 06:18:11;;;;;;;3.60;3.13;;;6.70;99.90;;;;;;5047318;28;20502;-48
2022/09/21 06:20:38;;;;;;;4.40;2.90;;;6.80;99.90;;;;;;5040303;28;20493;-47
2022/09/21 06:23:08;;;;;;;4.50;3.20;;;6.80;99.90;;;;;;5043455;28;21034;-47
2022/09/21 06:25:35;;;;;;;5.67;2.77;;;6.90;99.90;;;;;;5047600;28;20901;-47
2022/09/21 06:28:03;;;;;;;3.43;3.13;;;7.00;99.90;;;;;;5046939;28;20493;-47
2022/09/21 06:30:29;;;;;;;2.87;2.60;;;7.10;99.90;;;;;;5047065;28;20458;-47
2022/09/21 06:32:59;;;;;;;3.50;3.20;;;7.20;99.80;;;;;;5045252;28;20545;-46
2022/09/21 06:35:25;;;;;;;3.27;3.00;;;7.20;98.60;;;;;;5046009;28;20497;-47
2022/09/21 06:37:52;;;;;;;3.70;3.20;;;7.30;96.50;;;;;;5030683;28;20549;-47
2022/09/21 06:40:20;;;;;;;3.73;3.43;;;7.40;95.10;;;;;;5041828;28;21043;-46
2022/09/21 06:42:46;;;;;;;6.30;5.67;;;7.40;93.60;;;;;;5047265;28;20595;-46
2022/09/21 06:45:13;;;;;;;5.10;3.13;;;7.60;93.00;;;;;;5047155;28;20545;-47
2022/09/21 06:47:39;;;;;;;4.63;3.23;;;7.60;91.40;;;;;;5049011;28;20521;-48
2022/09/21 06:50:07;;;;;;;3.30;2.97;;;7.70;91.70;;;;;;5050519;28;20489;-46
2022/09/21 06:52:33;;;;;;;4.77;3.10;;;7.70;89.50;;;;;;5040043;28;20553;-46
2022/09/21 06:55:00;;;;;;;5.73;3.50;;;7.80;87.50;;;;;;5036312;28;20577;-48
2022/09/21 06:57:28;;;;;;;4.23;3.50;;;7.90;86.30;;;;;;5047802;28;20506;-46
2022/09/21 06:59:55;;;;;;;4.10;3.53;;;8.00;84.20;;;;;;5049400;28;20501;-46
2022/09/21 07:02:21;;;;;;;3.33;2.83;;;8.10;83.00;;;;;;5047118;28;20474;-46
2022/09/21 07:04:48;;;;;;;4.13;3.73;;;8.20;81.70;;;;;;5040992;28;20540;-46
2022/09/21 07:07:14;;;;;;;3.83;3.50;;;8.20;80.70;;;;;;5046888;28;20477;-46
2022/09/21 07:09:41;;;;;;;5.43;3.77;;;8.30;79.30;;;;;;5048354;28;20512;-49
2022/09/21 07:12:08;;;;;;;3.77;2.90;;;8.40;76.60;;;;;;5047924;28;20453;-50
2022/09/21 07:14:36;;;;;;;6.33;3.10;;;8.50;76.10;;;;;;5045908;28;20488;-50
2022/09/21 07:17:03;;;;;;;5.47;4.00;;;8.60;73.90;;;;;;5043247;28;20539;-50
2022/09/21 07:19:30;;;;;;;3.80;3.43;;;8.60;71.40;;;;;;5046088;28;20511;-49
2022/09/21 07:21:56;;;;;;;4.27;3.30;;;8.70;70.00;;;;;;5041037;28;20463;-50
2022/09/21 07:24:23;;;;;;;6.50;4.30;;;8.90;68.10;;;;;;5044483;28;20565;-49
2022/09/21 07:26:49;;;;;;;7.23;4.40;;;9.00;66.70;;;;;;5046640;28;20572;-50
2022/09/21 07:29:16;;;;;;;3.93;3.63;;;9.10;66.10;;;;;;5046434;28;20549;-49
2022/09/21 07:31:44;;;;;;;6.30;3.67;;;9.20;65.70;;;;;;5047636;28;20545;-50
2022/09/21 07:34:11;;;;;;;4.13;3.53;;;9.20;65.30;;;;;;5048549;28;21074;-50
2022/09/21 07:36:38;;;;;;;4.10;3.50;;;9.30;65.70;;;;;;5047358;28;20549;-50
2022/09/21 07:39:05;;;;;;;4.93;3.30;;;9.40;64.90;;;;;;5043555;28;20549;-51
2022/09/21 07:41:31;;;;;;;3.07;2.87;;;9.40;67.30;;;;;;5047571;28;21021;-50
2022/09/21 07:43:58;;;;;;;7.10;3.50;;;9.60;62.40;;;;;;5049332;28;20469;-51
2022/09/21 07:46:24;;;;;;;3.80;3.20;;;9.70;62.60;;;;;;5049721;28;20668;-50
2022/09/21 07:48:54;;;;;;;5.90;2.87;;;9.80;62.60;;;;;;5044627;28;20489;-50
2022/09/21 07:51:21;;;;;;;5.03;3.50;;;9.80;63.70;;;;;;5049823;28;20967;-50
2022/09/21 07:53:48;;;;;;;3.80;3.50;;;9.80;64.40;;;;;;5050383;28;21033;-50
2022/09/21 07:56:16;;;;;;;6.37;2.67;;;9.90;65.10;;;;;;5046310;28;20575;-50
2022/09/21 08:01:28;;;;;;;8.17;3.40;;;10.00;64.20;;;;;;5045602;28;20813;-49
2022/09/21 08:03:57;;;;;;;3.83;3.10;;;10.20;63.20;;;;;;5048680;28;20537;-50
2022/09/21 08:06:25;;;;;;;3.40;3.10;;;10.20;65.30;;;;;;5047568;28;20573;-49
2022/09/21 08:08:52;;;;;;;6.83;2.97;;;10.30;65.20;;;;;;5051394;28;20448;-50
2022/09/21 08:11:21;;;;;;;11.30;3.50;;;10.30;67.90;;;;;;5043803;28;20509;-50
2022/09/21 08:13:48;;;;;;;4.50;3.10;;;10.30;66.80;;;;;;5044445;28;20545;-49
2022/09/21 08:16:15;;;;;;;4.57;3.30;;;10.50;64.00;;;;;;5047269;28;20930;-49
2022/09/21 08:18:42;;;;;;;4.30;2.67;;;10.60;62.90;;;;;;5047857;28;20553;-49
2022/09/21 08:21:11;;;;;;;4.67;3.47;;;10.60;64.90;;;;;;5046342;28;20472;-50
2022/09/21 08:23:41;;;;;;;6.10;2.83;;;10.70;68.20;;;;;;5043710;28;21025;-50
2022/09/21 08:26:10;;;;;;;9.90;3.37;;;10.80;67.30;;;;;;5044120;28;20993;-50
2022/09/21 08:28:37;;;;;;;3.37;3.17;;;10.80;76.60;;;;;;5045763;28;20489;-50
2022/09/21 08:31:07;;;;;;;4.00;2.80;;;10.90;78.50;;;;;;5046288;28;20450;-49
2022/09/21 08:33:34;;;;;;;10.97;3.47;;;11.10;80.30;;;;;;5043221;28;20470;-50
2022/09/21 08:36:02;;;;;;;4.60;2.97;;;11.20;90.10;;;;;;5037905;28;20493;-51
2022/09/21 08:38:35;;;;;;;3.63;2.77;;;11.30;89.50;;;;;;5047064;28;20553;-51
2022/09/21 08:41:11;;;;;;;3.40;3.10;;;11.40;98.20;;;;;;5033966;28;21071;-50
2022/09/21 08:43:41;;;;;;;3.47;3.17;;;11.50;99.60;;;;;;5042215;28;21171;-50
2022/09/21 08:46:13;;;;;;;4.17;3.40;;;11.60;99.90;;;;;;5044692;28;20568;-50
2022/09/21 08:48:45;;;;;;;5.40;3.30;;;11.70;99.90;;;;;;5045329;28;20570;-50
2022/09/21 08:51:15;;;;;;;10.80;4.47;;;11.80;99.90;;;;;;5041936;28;20466;-50
2022/09/21 08:53:45;;;;;;;5.47;3.37;;;12.00;99.90;;;;;;5040224;28;20548;-50
2022/09/21 08:56:12;;;;;;;7.23;3.40;;;12.10;99.90;;;;;;5040678;28;20509;-50
2022/09/21 08:58:40;;;;;;;5.23;3.20;;;12.20;99.90;;;;;;5045382;28;20495;-51
2022/09/21 09:01:23;;;;;;;4.60;4.10;;;12.30;99.90;;;;;;5046894;28;20466;-51
2022/09/21 09:04:15;;;;;;;2.80;2.60;;;12.50;99.90;;;;;;5049892;28;20511;-49
2022/09/21 09:06:52;;;;;;;4.43;3.50;;;12.70;99.90;;;;;;5050154;28;20910;-50
2022/09/21 09:09:34;;;;;;;6.80;3.30;;;12.80;99.90;;;;;;5051864;28;20544;-49
2022/09/21 09:12:16;;;;;;;4.77;3.00;;;13.30;99.90;;;;;;5050140;28;20782;-50
2022/09/21 09:15:06;;;;;;;8.27;3.50;;;13.30;99.90;;;;;;5046858;28;20489;-50
2022/09/21 09:17:49;;;;;;;7.07;2.57;;;13.40;99.90;;;;;;5044235;28;20481;-51
2022/09/21 09:20:20;;;;;;;3.40;3.07;;;13.50;99.90;;;;;;5047366;28;21111;-50
2022/09/21 09:22:52;;;;;;;6.57;3.10;;;13.60;99.90;;;;;;5051052;28;20465;-50
2022/09/21 09:25:23;;;;;;;2.73;2.47;;;13.70;99.90;;;;;;5047717;28;21153;-50
2022/09/21 09:27:53;;;;;;;2.80;2.50;;;13.70;28.30;;;;;;5048322;28;20479;-50
2022/09/21 09:30:22;;;;;;;2.37;2.20;;;13.80;29.70;;;;;;5048636;28;20493;-50
2022/09/21 09:32:55;;;;;;;7.70;2.60;;;13.90;34.80;;;;;;5043999;28;20519;-50
2022/09/21 09:35:26;;;;;;;6.20;4.23;;;13.90;50.30;;;;;;5051939;28;20515;-50
2022/09/21 09:37:57;;;;;;;4.50;2.33;;;14.00;60.50;;;;;;5048332;28;20574;-51
2022/09/21 09:40:48;;;;;;;2.03;1.93;;;14.10;67.60;;;;;;5045653;28;20553;-50
2022/09/21 09:43:26;;;;;;;3.07;1.90;;;14.10;68.80;;;;;;5043890;28;20835;-50
2022/09/21 09:46:03;;;;;;;8.93;2.10;;;14.20;74.50;;;;;;5046128;28;20567;-50
2022/09/21 09:48:43;;;;;;;1.90;1.77;;;14.30;99.90;;;;;;5042326;28;20532;-49
2022/09/21 09:51:12;;;;;;;3.27;1.80;;;14.40;99.90;;;;;;5049532;28;20540;-49
2022/09/21 09:53:40;;;;;;;3.60;1.50;;;14.60;99.90;;;;;;5050834;28;20485;-51
2022/09/21 09:56:10;;;;;;;3.53;1.70;;;14.80;99.90;;;;;;5046947;28;20517;-50
2022/09/21 09:58:43;;;;;;;2.30;2.10;;;14.90;99.90;;;;;;5045850;28;20465;-50
2022/09/21 10:01:37;;;;;;;1.80;1.27;;;15.00;99.90;;;;;;5043007;28;20603;-49
2022/09/21 10:04:09;;;;;;;4.13;1.03;;;15.10;99.90;;;;;;5046492;28;20958;-50
2022/09/21 10:06:36;;;;;;;16.73;1.10;;;15.20;99.90;;;;;;5052197;28;20548;-50
2022/09/21 10:09:23;;;;;;;4.73;1.90;;;15.30;99.90;;;;;;5047698;28;20470;-50
2022/09/21 10:11:52;;;;;;;3.17;2.00;;;15.50;99.90;;;;;;5044014;28;20557;-50
2022/09/21 10:14:21;;;;;;;1.83;1.33;;;15.50;99.90;;;;;;5045540;28;20553;-50
2022/09/21 10:16:52;;;;;;;2.10;1.53;;;15.90;99.90;;;;;;5049439;28;21237;-50
2022/09/21 10:19:22;;;;;;;6.53;1.73;;;15.60;99.90;;;;;;5047779;28;20470;-50
2022/09/21 10:21:55;;;;;;;2.53;1.00;;;15.30;99.90;;;;;;5044290;28;20489;-49
2022/09/21 10:24:23;;;;;;;2.10;0.90;;;15.10;99.90;;;;;;5051981;28;20533;-51
2022/09/21 10:26:53;;;;;;;0.80;0.67;;;14.80;99.90;;;;;;5047766;28;20557;-50
2022/09/21 10:29:31;;;;;;;1.43;1.00;;;14.60;99.90;;;;;;5050031;28;20464;-50
2022/09/21 10:32:01;;;;;;;1.53;1.43;;;14.50;99.90;;;;;;5045876;28;20933;-50
2022/09/21 10:34:30;;;;;;;0.90;0.90;;;14.40;99.90;;;;;;5044205;28;20580;-50
2022/09/21 10:36:59;;;;;;;1.50;1.00;;;14.60;99.90;;;;;;5046877;28;20477;-51
2022/09/21 10:39:28;;;;;;;1.30;1.20;;;14.70;99.90;;;;;;5041732;28;20968;-49
2022/09/21 10:42:00;;;;;;;1.83;1.00;;;14.80;99.90;;;;;;5048521;28;20457;-50
2022/09/21 10:44:29;;;;;;;1.00;1.00;;;15.00;99.90;;;;;;5048228;28;20493;-50
2022/09/21 10:46:57;;;;;;;2.93;1.70;;;15.00;99.90;;;;;;5042727;28;20923;-50
2022/09/21 10:49:27;;;;;;;2.97;1.00;;;14.80;99.90;;;;;;5048109;28;20537;-50
2022/09/21 10:51:57;;;;;;;1.07;0.93;;;14.70;99.90;;;;;;5046544;28;21039;-51
2022/09/21 10:54:27;;;;;;;1.10;1.00;;;14.60;99.90;;;;;;5050555;28;20528;-50
2022/09/21 10:56:57;;;;;;;1.00;0.87;;;14.40;99.90;;;;;;5046259;28;20569;-49
2022/09/21 10:59:27;;;;;;;1.33;0.70;;;14.30;99.90;;;;;;5047746;28;20560;-49
2022/09/21 11:01:55;;;;;;;1.83;0.90;;;14.20;99.90;;;;;;5043260;28;20474;-50
2022/09/21 11:04:34;;;;;;;3.90;0.83;;;14.20;99.90;;;;;;5048195;28;20529;-51
2022/09/21 11:07:07;;;;;;;0.90;0.90;;;14.10;99.90;;;;;;5014612;28;967417;-50
2022/09/21 11:09:38;;;;;;;0.90;0.90;;;14.00;99.90;;;;;;5049070;28;20295;-51
2022/09/21 11:12:15;;;;;;;1.60;1.03;;;14.00;99.90;;;;;;5048694;28;20532;-50
2022/09/21 11:14:49;;;;;;;4.20;1.40;;;13.90;99.90;;;;;;5051190;28;20438;-50
2022/09/21 11:17:25;;;;;;;2.10;1.10;;;14.00;99.90;;;;;;5046457;28;20572;-50
2022/09/21 11:20:01;;;;;;;4.10;1.20;;;14.10;1.40;;;;;;5036077;28;20883;-49
2022/09/21 11:22:35;;;;;;;1.03;0.93;;;14.30;99.90;;;;;;5048277;28;20534;-50
2022/09/21 11:25:23;;;;;;;1.10;0.97;;;14.50;99.90;;;;;;5050079;28;20493;-49
2022/09/21 11:27:56;;;;;;;1.00;0.90;;;14.80;99.90;;;;;;5044391;28;21084;-50
2022/09/21 11:30:23;;;;;;;0.83;0.80;;;15.10;99.90;;;;;;5034434;28;20549;-51
2022/09/21 11:33:06;;;;;;;1.57;1.00;;;15.20;99.90;;;;;;5046128;28;20477;-50
2022/09/21 11:35:52;;;;;;;1.30;1.00;;;15.20;99.90;;;;;;5049269;28;20486;-50
2022/09/21 11:38:28;;;;;;;2.23;1.30;;;15.10;99.90;;;;;;5032952;28;20577;-49
2022/09/21 11:41:05;;;;;;;1.27;0.97;;;15.00;99.90;;;;;;5040067;28;20548;-50
2022/09/21 11:43:44;;;;;;;1.33;0.93;;;14.90;99.90;;;;;;5044096;28;20453;-50
2022/09/21 11:46:21;;;;;;;1.10;1.00;;;14.80;99.90;;;;;;5046569;28;20505;-51
2022/09/21 11:49:06;;;;;;;1.10;1.07;;;14.80;99.90;;;;;;5048195;28;20536;-50
2022/09/21 11:51:51;;;;;;;1.40;0.90;;;14.70;99.90;;;;;;5044104;28;20584;-50
2022/09/21 11:54:45;;;;;;;1.13;0.60;;;14.60;99.90;;;;;;5042356;28;20500;-51
2022/09/21 11:57:20;;;;;;;0.80;0.80;;;14.60;99.90;;;;;;5042676;28;20499;-50
2022/09/21 12:00:04;;;;;;;0.90;0.80;;;14.50;99.90;;;;;;5046756;28;20462;-49
2022/09/21 12:03:06;;;;;;;2.90;1.00;;;14.50;99.90;;;;;;5044032;28;20453;-50
2022/09/21 12:05:38;;;;;;;4.63;1.23;;;14.50;99.90;;;;;;5042490;28;20971;-50
2022/09/21 12:08:30;;;;;;;0.60;0.60;;;14.40;99.90;;;;;;5046690;28;20577;-51
2022/09/21 12:11:02;;;;;;;3.23;0.70;;;14.40;99.90;;;;;;5048708;28;21030;-50
2022/09/21 12:13:35;;;;;;;1.10;0.80;;;14.40;99.90;;;;;;5049142;28;20548;-50
2022/09/21 12:16:10;;;;;;;0.97;0.97;;;14.50;99.90;;;;;;5044818;28;20493;-50
2022/09/21 12:18:42;;;;;;;2.60;0.90;;;14.60;99.90;;;;;;5043400;28;20459;-49
2022/09/21 12:21:15;;;;;;;1.10;0.83;;;14.80;99.90;;;;;;5047999;28;20512;-50
2022/09/21 12:23:46;;;;;;;2.87;0.77;;;15.10;20.60;;;;;;5043130;28;20908;-51
2022/09/21 12:26:18;;;;;;;1.63;1.53;;;15.40;52.90;;;;;;5042638;28;20572;-51
2022/09/21 12:28:49;;;;;;;3.43;1.37;;;15.60;44.60;;;;;;5044240;28;20880;-51
2022/09/21 12:31:21;;;;;;;1.17;1.00;;;15.80;38.40;;;;;;5046253;28;20537;-50
2022/09/21 12:33:51;;;;;;;0.90;0.90;;;16.10;50.30;;;;;;5045877;28;20493;-51
2022/09/21 12:36:21;;;;;;;1.13;1.13;;;16.30;52.10;;;;;;5051968;28;20484;-51
2022/09/21 12:38:58;;;;;;;1.43;1.43;;;16.20;70.40;;;;;;5044619;28;20556;-50
2022/09/21 12:41:33;;;;;;;1.30;1.27;;;16.00;68.10;;;;;;5050816;28;20540;-50
2022/09/21 12:44:06;;;;;;;1.70;1.17;;;15.80;59.90;;;;;;5051143;28;20583;-51
2022/09/21 12:46:38;;;;;;;1.10;1.00;;;15.50;45.10;;;;;;5044280;28;20578;-51
2022/09/21 12:49:13;;;;;;;1.00;1.00;;;15.30;34.40;;;;;;5048423;28;20582;-52
2022/09/21 12:51:44;;;;;;;1.33;1.00;;;15.40;31.90;;;;;;5049176;28;20472;-50
2022/09/21 12:54:19;;;;;;;1.47;0.80;;;15.50;99.90;;;;;;5048291;28;20461;-52
2022/09/21 12:56:51;;;;;;;0.93;0.60;;;15.70;27.70;;;;;;5045697;28;20568;-50
2022/09/21 12:59:27;;;;;;;1.37;0.90;;;15.90;49.50;;;;;;5050515;28;20561;-50
2022/09/21 13:01:59;;;;;;;1.50;1.00;;;16.00;47.30;;;;;;5043536;28;20481;-51
2022/09/21 13:04:40;;;;;;;2.50;1.00;;;16.20;56.60;;;;;;5047555;28;20549;-50
2022/09/21 13:07:38;;;;;;;0.90;0.90;;;16.10;85.40;;;;;;5048037;28;20488;-50
2022/09/21 13:10:16;;;;;;;0.63;0.63;;;16.30;82.90;;;;;;5042845;28;20531;-51
2022/09/21 13:12:45;;;;;;;0.80;0.60;;;16.40;84.10;;;;;;5050653;22;20577;-49
2022/09/21 13:15:15;;;;;;;0.73;0.73;;;16.50;96.20;;;;;;5025847;28;20454;-46